Time;durP1;ratioP1;P1;durP2;ratioP2;P2;SDS_P1;SDS_P2;PMS_P1;PMS_P2;Temp;Humidity;BMP_temperature;BMP_pressure;BME280_temperature;BME280_humidity;BME280_pressure;Samples;Min_cycle;Max_cycle;Signal;HPM_P1;HPM_P2
2024/02/22 00:01:56;;;;;;;1.00;0.50;;;10.20;99.90;;;;;;4095764;28;20457;-73
2024/02/22 00:03:56;;;;;;;2.63;0.68;;;10.20;99.90;;;;;;4096590;28;20035;-73
2024/02/22 00:05:57;;;;;;;0.57;0.43;;;10.20;99.90;;;;;;4095807;28;20027;-72
2024/02/22 00:07:57;;;;;;;0.80;0.63;;;10.10;99.90;;;;;;4077566;29;20044;-73
2024/02/22 00:10:00;;;;;;;1.90;0.40;;;10.20;99.90;;;;;;4090313;28;20036;-72
2024/02/22 00:12:00;;;;;;;0.50;0.40;;;10.20;99.90;;;;;;4092932;28;20126;-73
2024/02/22 00:14:01;;;;;;;1.08;0.47;;;10.20;99.90;;;;;;4084255;28;20070;-72
2024/02/22 00:16:03;;;;;;;0.57;0.50;;;10.20;99.90;;;;;;4091069;28;20130;-73
2024/02/22 00:18:04;;;;;;;1.05;0.55;;;10.20;99.90;;;;;;4095453;28;20046;-73
2024/02/22 00:20:06;;;;;;;0.55;0.40;;;10.20;99.90;;;;;;4094112;28;20477;-72
2024/02/22 00:22:07;;;;;;;0.80;0.63;;;10.20;99.90;;;;;;4093328;28;20050;-73
2024/02/22 00:24:07;;;;;;;1.25;0.38;;;10.20;99.90;;;;;;4079200;29;20047;-73
2024/02/22 00:26:08;;;;;;;0.50;0.40;;;10.20;99.90;;;;;;4095140;28;20477;-72
2024/02/22 00:28:09;;;;;;;0.90;0.50;;;10.20;99.90;;;;;;4095584;28;20086;-72
2024/02/22 00:30:12;;;;;;;0.90;0.60;;;10.20;99.90;;;;;;4090834;28;20057;-72
2024/02/22 00:32:12;;;;;;;0.68;0.68;;;10.30;99.90;;;;;;4095146;28;20122;-72
2024/02/22 00:34:13;;;;;;;0.82;0.30;;;10.30;99.90;;;;;;4096195;28;20036;-73
2024/02/22 00:36:13;;;;;;;0.35;0.35;;;10.30;99.90;;;;;;4095456;28;20031;-72
2024/02/22 00:38:14;;;;;;;1.08;0.60;;;10.30;99.90;;;;;;4095109;28;20098;-71
2024/02/22 00:40:17;;;;;;;0.40;0.40;;;10.30;99.90;;;;;;4094994;28;20039;-72
2024/02/22 00:42:18;;;;;;;0.65;0.65;;;10.30;99.90;;;;;;4091679;28;20035;-71
2024/02/22 00:44:18;;;;;;;0.80;0.70;;;10.30;99.90;;;;;;4095871;28;20371;-71
2024/02/22 00:46:19;;;;;;;0.30;0.30;;;10.30;99.90;;;;;;4090747;28;20043;-71
2024/02/22 00:48:20;;;;;;;1.33;0.70;;;10.40;99.90;;;;;;4089694;28;20043;-71
2024/02/22 00:50:20;;;;;;;0.77;0.52;;;10.40;99.90;;;;;;4101730;28;20559;-71
2024/02/22 00:52:21;;;;;;;0.75;0.40;;;10.40;99.90;;;;;;4096971;28;20058;-68
2024/02/22 00:54:22;;;;;;;0.98;0.40;;;10.40;99.90;;;;;;4094603;28;20504;-68
2024/02/22 00:56:22;;;;;;;3.58;0.50;;;10.40;99.90;;;;;;4094830;28;20050;-68
2024/02/22 00:58:24;;;;;;;0.50;0.40;;;10.40;99.90;;;;;;4094620;28;20489;-68
2024/02/22 01:00:24;;;;;;;0.52;0.45;;;10.40;99.90;;;;;;4091786;28;20039;-68
2024/02/22 01:02:28;;;;;;;2.33;0.55;;;10.50;99.90;;;;;;4092190;28;20163;-68
2024/02/22 01:04:29;;;;;;;1.05;0.43;;;10.40;99.90;;;;;;4093429;28;20027;-70
2024/02/22 01:06:30;;;;;;;0.60;0.60;;;10.40;99.90;;;;;;4091160;28;20210;-68
2024/02/22 01:08:31;;;;;;;1.25;0.60;;;10.40;99.90;;;;;;4095739;28;20075;-68
2024/02/22 01:10:31;;;;;;;0.95;0.60;;;10.40;99.90;;;;;;4093351;28;20726;-68
2024/02/22 01:12:32;;;;;;;1.70;0.35;;;10.40;99.90;;;;;;4092294;28;20489;-69
2024/02/22 01:14:33;;;;;;;1.42;0.50;;;10.40;99.90;;;;;;4095530;28;20059;-71
2024/02/22 01:16:34;;;;;;;2.67;0.70;;;10.50;99.90;;;;;;4093625;28;20061;-69
2024/02/22 01:18:34;;;;;;;0.55;0.40;;;10.50;99.90;;;;;;4096488;28;20035;-71
2024/02/22 01:20:35;;;;;;;0.63;0.40;;;10.50;99.90;;;;;;4093103;28;20059;-69
2024/02/22 01:22:36;;;;;;;0.60;0.52;;;10.50;99.90;;;;;;4095980;28;20115;-68
2024/02/22 01:24:36;;;;;;;0.52;0.40;;;10.50;99.90;;;;;;4095300;28;20043;-68
2024/02/22 01:26:37;;;;;;;0.30;0.30;;;10.50;99.90;;;;;;4094640;28;20118;-68
2024/02/22 01:28:37;;;;;;;0.45;0.45;;;10.50;99.90;;;;;;4094131;28;20082;-68
2024/02/22 01:30:39;;;;;;;0.60;0.50;;;10.50;99.90;;;;;;4095511;28;20099;-68
2024/02/22 01:32:39;;;;;;;1.13;0.68;;;10.50;99.90;;;;;;4095563;28;20035;-71
2024/02/22 01:34:40;;;;;;;1.45;0.40;;;10.50;99.90;;;;;;4094081;28;20437;-69
2024/02/22 01:36:41;;;;;;;0.70;0.40;;;10.50;99.90;;;;;;4093941;28;20023;-68
2024/02/22 01:38:41;;;;;;;0.85;0.43;;;10.50;99.90;;;;;;4094273;28;20420;-69
2024/02/22 01:40:42;;;;;;;2.13;0.73;;;10.50;99.90;;;;;;4076245;28;20458;-68
2024/02/22 01:42:43;;;;;;;0.70;0.40;;;10.50;99.90;;;;;;4095227;28;20378;-70
2024/02/22 01:44:43;;;;;;;1.02;0.40;;;10.50;99.90;;;;;;4094474;28;20455;-69
2024/02/22 01:46:44;;;;;;;1.27;0.40;;;10.50;99.90;;;;;;4093482;28;20459;-69
2024/02/22 01:48:46;;;;;;;0.50;0.50;;;10.50;99.90;;;;;;4078882;29;20024;-68
2024/02/22 01:50:52;;;;;;;1.50;0.40;;;10.50;99.90;;;;;;4093613;28;20043;-69
2024/02/22 01:52:52;;;;;;;0.73;0.60;;;10.60;99.90;;;;;;4095148;28;20023;-69
2024/02/22 01:54:53;;;;;;;2.67;0.40;;;10.50;99.90;;;;;;4095198;28;20473;-69
2024/02/22 01:56:55;;;;;;;1.13;0.50;;;10.60;99.90;;;;;;4093478;28;20135;-68
2024/02/22 01:58:57;;;;;;;4.45;0.50;;;10.60;99.90;;;;;;4077186;29;20068;-70
2024/02/22 02:00:59;;;;;;;0.93;0.35;;;10.60;99.90;;;;;;4093932;28;20031;-69
2024/02/22 02:03:00;;;;;;;2.88;0.75;;;10.60;99.90;;;;;;4094933;28;20038;-72
2024/02/22 02:05:01;;;;;;;0.55;0.40;;;10.60;99.90;;;;;;4092925;28;20035;-72
2024/02/22 02:07:01;;;;;;;1.52;0.63;;;10.60;99.90;;;;;;4092550;28;20031;-73
2024/02/22 02:09:02;;;;;;;1.38;0.50;;;10.60;99.90;;;;;;4095537;28;22481;-72
2024/02/22 02:11:04;;;;;;;1.92;0.73;;;10.60;99.90;;;;;;4093427;28;20047;-73
2024/02/22 02:13:05;;;;;;;0.47;0.47;;;10.60;99.90;;;;;;4093141;28;20435;-72
2024/02/22 02:15:06;;;;;;;0.40;0.35;;;10.60;99.90;;;;;;4093520;28;20035;-72
2024/02/22 02:17:07;;;;;;;1.40;0.40;;;10.60;99.90;;;;;;4093449;28;20413;-72
2024/02/22 02:19:10;;;;;;;0.45;0.30;;;10.70;99.90;;;;;;4093215;28;20119;-73
2024/02/22 02:21:24;;;;;;;0.65;0.43;;;10.70;99.90;;;;;;4089181;28;20067;-72
2024/02/22 02:24:05;;;;;;;0.73;0.65;;;10.60;99.90;;;;;;4091700;28;20523;-73
2024/02/22 02:26:06;;;;;;;0.60;0.40;;;10.70;99.90;;;;;;4091184;28;20038;-72
2024/02/22 02:28:07;;;;;;;2.83;0.70;;;10.70;99.90;;;;;;4093899;28;20059;-72
2024/02/22 02:30:08;;;;;;;0.55;0.43;;;10.70;99.90;;;;;;4089492;28;20071;-71
2024/02/22 02:32:08;;;;;;;1.98;0.73;;;10.70;99.90;;;;;;4094023;28;20540;-73
2024/02/22 02:34:10;;;;;;;1.48;0.55;;;10.70;99.90;;;;;;4094573;28;20074;-73
2024/02/22 02:36:10;;;;;;;0.93;0.60;;;10.70;99.90;;;;;;4091808;28;20118;-73
2024/02/22 02:38:11;;;;;;;1.17;0.52;;;10.70;99.90;;;;;;4076303;29;20430;-73
2024/02/22 02:40:12;;;;;;;1.27;0.63;;;10.70;99.90;;;;;;4092100;28;20511;-72
2024/02/22 02:42:14;;;;;;;0.95;0.40;;;10.70;99.90;;;;;;4094352;28;20130;-73
2024/02/22 02:44:15;;;;;;;0.93;0.60;;;10.70;99.90;;;;;;4092979;28;20122;-72
2024/02/22 02:46:15;;;;;;;0.65;0.50;;;10.70;99.90;;;;;;4091563;28;20374;-73
2024/02/22 02:48:19;;;;;;;1.63;0.50;;;10.70;99.90;;;;;;4092729;28;20117;-72
2024/02/22 02:50:19;;;;;;;1.05;0.50;;;10.70;99.90;;;;;;4093059;28;20460;-71
2024/02/22 02:52:20;;;;;;;0.52;0.52;;;10.80;99.90;;;;;;4091053;28;20052;-71
2024/02/22 02:54:21;;;;;;;0.98;0.80;;;10.80;99.90;;;;;;4088295;28;20054;-73
2024/02/22 02:56:21;;;;;;;0.65;0.60;;;10.80;99.90;;;;;;4093029;28;20038;-72
2024/02/22 02:58:22;;;;;;;0.57;0.57;;;10.80;99.90;;;;;;4092232;28;20031;-71
2024/02/22 03:00:22;;;;;;;0.80;0.70;;;10.80;99.90;;;;;;4088243;28;20039;-72
2024/02/22 03:02:23;;;;;;;0.75;0.63;;;10.80;99.90;;;;;;4090515;28;20039;-72
2024/02/22 03:04:23;;;;;;;0.60;0.43;;;10.80;99.90;;;;;;4090972;28;20110;-69
2024/02/22 03:06:24;;;;;;;0.80;0.80;;;10.90;99.90;;;;;;4089531;28;20071;-68
2024/02/22 03:08:25;;;;;;;2.33;1.05;;;10.90;99.90;;;;;;4091262;28;20039;-69
2024/02/22 03:10:25;;;;;;;0.47;0.47;;;10.80;99.90;;;;;;4093539;28;20042;-68
2024/02/22 03:12:26;;;;;;;1.65;0.82;;;10.80;99.90;;;;;;4092396;28;20028;-70
2024/02/22 03:14:27;;;;;;;0.52;0.50;;;10.80;99.90;;;;;;4100030;28;20039;-69
2024/02/22 03:16:27;;;;;;;1.10;0.90;;;10.80;99.90;;;;;;4089089;28;20036;-68
2024/02/22 03:18:28;;;;;;;1.80;0.88;;;10.80;99.90;;;;;;4091191;28;20031;-69
2024/02/22 03:20:29;;;;;;;0.73;0.50;;;10.90;99.90;;;;;;4090781;28;20035;-69
2024/02/22 03:22:30;;;;;;;0.50;0.50;;;10.90;99.90;;;;;;4093158;28;20044;-69
2024/02/22 03:24:30;;;;;;;0.70;0.65;;;10.90;99.90;;;;;;4094911;28;20106;-72
2024/02/22 03:26:31;;;;;;;0.68;0.68;;;10.90;99.90;;;;;;4095524;28;20043;-72
2024/02/22 03:28:32;;;;;;;0.88;0.73;;;10.90;99.90;;;;;;4097172;28;20035;-72
2024/02/22 03:30:35;;;;;;;0.52;0.52;;;10.90;99.90;;;;;;4096039;28;20042;-73
2024/02/22 03:32:36;;;;;;;0.57;0.57;;;11.00;99.90;;;;;;4096521;28;20035;-72
2024/02/22 03:34:37;;;;;;;1.25;0.65;;;11.00;99.90;;;;;;4096636;28;20031;-72
2024/02/22 03:36:41;;;;;;;0.98;0.75;;;11.00;99.90;;;;;;4096649;28;20133;-73
2024/02/22 03:38:42;;;;;;;0.63;0.60;;;10.90;99.90;;;;;;4096662;28;20050;-72
2024/02/22 03:40:42;;;;;;;0.60;0.60;;;11.00;99.90;;;;;;4095667;28;20035;-73
2024/02/22 03:42:43;;;;;;;0.80;0.80;;;11.00;99.90;;;;;;4097403;28;20038;-72
2024/02/22 03:44:44;;;;;;;0.75;0.75;;;11.00;99.90;;;;;;4097025;28;20110;-73
2024/02/22 03:46:46;;;;;;;0.50;0.50;;;11.00;99.90;;;;;;4102836;28;20388;-73
2024/02/22 03:48:47;;;;;;;0.85;0.60;;;11.00;99.90;;;;;;4096043;28;20067;-72
2024/02/22 03:50:48;;;;;;;3.65;0.70;;;11.00;99.90;;;;;;4095248;28;20019;-73
2024/02/22 03:52:49;;;;;;;0.77;0.68;;;11.00;99.90;;;;;;4097118;28;20055;-73
2024/02/22 03:54:50;;;;;;;0.80;0.68;;;11.00;99.90;;;;;;4097035;28;20067;-72
2024/02/22 03:56:50;;;;;;;1.33;0.85;;;11.00;99.90;;;;;;4095190;28;20110;-70
2024/02/22 03:58:51;;;;;;;1.25;0.70;;;11.00;99.90;;;;;;4095812;28;20442;-72
2024/02/22 04:00:52;;;;;;;0.88;0.60;;;11.00;99.90;;;;;;4094863;28;20042;-72
2024/02/22 04:02:53;;;;;;;0.93;0.70;;;11.00;99.90;;;;;;4097201;28;20107;-72
2024/02/22 04:04:54;;;;;;;0.82;0.55;;;11.00;99.90;;;;;;4096477;28;20063;-72
2024/02/22 04:06:56;;;;;;;0.98;0.70;;;11.00;99.90;;;;;;4095925;28;20382;-73
2024/02/22 04:08:57;;;;;;;0.70;0.70;;;11.00;99.90;;;;;;4096446;28;20035;-72
2024/02/22 04:10:57;;;;;;;1.08;0.80;;;11.10;99.90;;;;;;4098083;28;20039;-72
2024/02/22 04:12:58;;;;;;;0.68;0.55;;;11.00;99.90;;;;;;4097316;28;20442;-73
2024/02/22 04:14:59;;;;;;;0.52;0.52;;;11.00;99.90;;;;;;4096125;28;20508;-73
2024/02/22 04:16:59;;;;;;;0.95;0.70;;;11.00;99.90;;;;;;4093940;28;20046;-73
2024/02/22 04:19:00;;;;;;;0.82;0.60;;;11.10;99.90;;;;;;4095276;28;20031;-73
2024/02/22 04:21:01;;;;;;;0.70;0.70;;;11.10;99.90;;;;;;4095023;28;20039;-72
2024/02/22 04:23:01;;;;;;;1.02;0.80;;;11.10;99.90;;;;;;4095062;28;20039;-71
2024/02/22 04:25:02;;;;;;;0.50;0.47;;;11.10;99.90;;;;;;4095752;28;20044;-71
2024/02/22 04:27:02;;;;;;;1.20;0.77;;;11.10;99.90;;;;;;4075436;29;20059;-72
2024/02/22 04:29:03;;;;;;;1.35;0.75;;;11.10;99.90;;;;;;4091580;28;20054;-71
2024/02/22 04:31:04;;;;;;;0.90;0.73;;;11.10;99.90;;;;;;4092042;28;20039;-72
2024/02/22 04:33:05;;;;;;;0.88;0.65;;;11.10;99.90;;;;;;4095331;28;20039;-72
2024/02/22 04:35:06;;;;;;;1.10;1.00;;;11.10;99.90;;;;;;4093488;28;20533;-72
2024/02/22 04:37:07;;;;;;;1.35;0.90;;;11.10;99.90;;;;;;4096366;28;20039;-72
2024/02/22 04:39:09;;;;;;;1.13;0.95;;;11.10;99.90;;;;;;4089661;28;20521;-72
2024/02/22 04:41:18;;;;;;;1.40;0.90;;;11.10;99.90;;;;;;4090576;28;20043;-72
2024/02/22 04:43:19;;;;;;;1.50;1.20;;;11.10;99.90;;;;;;4092123;28;20047;-69
2024/02/22 04:45:19;;;;;;;1.30;0.95;;;11.10;99.90;;;;;;4091203;28;20090;-68
2024/02/22 04:47:20;;;;;;;1.45;1.35;;;11.10;99.90;;;;;;4095020;28;20576;-69
2024/02/22 04:49:21;;;;;;;2.47;1.60;;;11.20;99.90;;;;;;4093046;28;20086;-70
2024/02/22 04:51:22;;;;;;;2.83;1.75;;;11.10;99.90;;;;;;4094539;28;20442;-69
2024/02/22 04:53:22;;;;;;;1.77;1.67;;;11.20;99.90;;;;;;4092425;28;20102;-68
2024/02/22 04:55:23;;;;;;;3.28;2.20;;;11.20;99.90;;;;;;4091089;28;20130;-69
2024/02/22 04:57:23;;;;;;;2.35;2.15;;;11.20;99.90;;;;;;4092930;28;20454;-68
2024/02/22 04:59:24;;;;;;;3.78;2.45;;;11.10;99.90;;;;;;4093992;28;20140;-70
2024/02/22 05:01:28;;;;;;;2.58;2.30;;;11.20;99.90;;;;;;4090787;28;20047;-69
2024/02/22 05:03:29;;;;;;;3.35;2.53;;;11.10;99.90;;;;;;4091153;28;20031;-68
2024/02/22 05:05:29;;;;;;;2.20;2.00;;;11.10;99.90;;;;;;4092752;28;20131;-68
2024/02/22 05:07:30;;;;;;;2.45;2.25;;;11.10;99.90;;;;;;4076259;29;20036;-69
2024/02/22 05:09:31;;;;;;;2.40;2.20;;;11.10;99.90;;;;;;4094649;28;20392;-70
2024/02/22 05:11:31;;;;;;;2.35;1.80;;;11.10;99.90;;;;;;4094251;28;20031;-68
2024/02/22 05:13:32;;;;;;;2.72;1.80;;;11.10;99.90;;;;;;4095818;28;20039;-69
2024/02/22 05:15:33;;;;;;;2.45;1.98;;;11.10;99.90;;;;;;4094891;28;20043;-69
2024/02/22 05:17:33;;;;;;;2.00;1.83;;;11.10;99.90;;;;;;4079956;28;20425;-69
2024/02/22 05:19:34;;;;;;;1.60;1.50;;;11.10;99.90;;;;;;4095790;28;20051;-68
2024/02/22 05:21:34;;;;;;;1.55;1.23;;;11.10;99.90;;;;;;4089094;28;20067;-69
2024/02/22 05:23:35;;;;;;;2.58;1.30;;;11.10;99.90;;;;;;4096234;28;20031;-71
2024/02/22 05:25:35;;;;;;;1.23;1.10;;;11.10;99.90;;;;;;4094759;28;20047;-69
2024/02/22 05:27:36;;;;;;;2.13;1.10;;;11.10;99.90;;;;;;4094554;28;20122;-69
2024/02/22 05:29:37;;;;;;;1.23;1.00;;;11.20;99.90;;;;;;4094264;28;20051;-69
2024/02/22 05:31:38;;;;;;;1.67;1.40;;;11.20;99.90;;;;;;4093616;28;20477;-69
2024/02/22 05:33:39;;;;;;;1.67;1.10;;;11.10;99.90;;;;;;4078423;29;20035;-68
2024/02/22 05:35:40;;;;;;;0.95;0.95;;;11.10;99.90;;;;;;4094436;28;20043;-69
2024/02/22 05:37:41;;;;;;;0.80;0.80;;;11.10;99.90;;;;;;4092975;28;20107;-69
2024/02/22 05:39:41;;;;;;;1.05;0.90;;;11.10;99.90;;;;;;4091628;28;20143;-68
2024/02/22 05:41:42;;;;;;;1.05;0.95;;;11.20;99.90;;;;;;4089507;28;20088;-68
2024/02/22 05:43:43;;;;;;;1.15;1.05;;;11.10;99.90;;;;;;4094064;28;20035;-72
2024/02/22 05:45:46;;;;;;;2.45;1.10;;;11.10;99.90;;;;;;4087705;28;20027;-72
2024/02/22 05:47:48;;;;;;;1.23;1.10;;;11.10;99.90;;;;;;4076590;29;20043;-71
2024/02/22 05:49:48;;;;;;;1.50;1.30;;;11.20;99.90;;;;;;4088213;28;20434;-71
2024/02/22 05:51:49;;;;;;;2.20;1.30;;;11.10;99.90;;;;;;4088741;28;20087;-72
2024/02/22 05:53:51;;;;;;;2.13;1.60;;;11.10;99.90;;;;;;4093481;28;20035;-72
2024/02/22 05:55:52;;;;;;;1.35;1.23;;;11.10;99.90;;;;;;4080476;28;20073;-71
2024/02/22 05:57:53;;;;;;;2.47;1.60;;;11.10;99.90;;;;;;4097258;28;20043;-72
2024/02/22 05:59:53;;;;;;;1.88;1.40;;;11.10;99.90;;;;;;4089429;28;20086;-72
2024/02/22 06:01:54;;;;;;;1.52;1.42;;;11.10;99.90;;;;;;4086432;28;20497;-71
2024/02/22 06:03:54;;;;;;;3.40;1.30;;;11.10;99.90;;;;;;4093648;28;20619;-69
2024/02/22 06:05:55;;;;;;;1.92;1.48;;;11.10;99.90;;;;;;4081936;28;20489;-70
2024/02/22 06:07:55;;;;;;;1.55;1.20;;;11.10;99.90;;;;;;4095963;28;20061;-68
2024/02/22 06:09:56;;;;;;;1.88;1.40;;;11.10;99.90;;;;;;4094104;28;20032;-68
2024/02/22 06:11:56;;;;;;;1.30;1.17;;;11.10;99.90;;;;;;4085659;28;20043;-68
2024/02/22 06:13:57;;;;;;;2.22;1.27;;;11.10;99.90;;;;;;4095268;28;20067;-68
2024/02/22 06:15:58;;;;;;;1.35;1.20;;;11.10;99.90;;;;;;4089270;28;20036;-68
2024/02/22 06:17:58;;;;;;;1.50;1.40;;;11.10;99.90;;;;;;4075347;29;20051;-71
2024/02/22 06:20:03;;;;;;;1.55;1.45;;;11.10;99.90;;;;;;4090856;28;20039;-70
2024/02/22 06:22:03;;;;;;;1.88;1.58;;;11.10;99.90;;;;;;4091233;28;20134;-68
2024/02/22 06:24:04;;;;;;;2.03;1.83;;;11.00;99.90;;;;;;4099441;28;20073;-68
2024/02/22 06:26:05;;;;;;;1.98;1.77;;;11.00;99.90;;;;;;4082568;28;20133;-68
2024/02/22 06:28:07;;;;;;;2.15;1.95;;;11.00;99.90;;;;;;4079318;28;20176;-69
2024/02/22 06:30:08;;;;;;;4.45;1.77;;;11.00;99.90;;;;;;4090818;28;20498;-70
2024/02/22 06:32:09;;;;;;;3.28;1.98;;;11.00;99.90;;;;;;4097472;28;20034;-69
2024/02/22 06:34:09;;;;;;;2.33;1.90;;;11.00;99.90;;;;;;4080646;28;20039;-68
2024/02/22 06:36:10;;;;;;;6.20;2.90;;;11.00;99.90;;;;;;4083394;28;20031;-70
2024/02/22 06:38:11;;;;;;;5.07;2.75;;;11.00;99.90;;;;;;4091549;28;20050;-71
2024/02/22 06:40:11;;;;;;;4.35;2.65;;;10.90;99.90;;;;;;4089327;28;20039;-71
2024/02/22 06:42:13;;;;;;;3.22;2.25;;;11.00;99.90;;;;;;4093788;28;22173;-70
2024/02/22 06:44:13;;;;;;;2.75;1.85;;;11.00;99.90;;;;;;4093563;28;20474;-69
2024/02/22 06:46:16;;;;;;;3.15;2.03;;;11.00;99.90;;;;;;4090129;28;20043;-70
2024/02/22 06:48:16;;;;;;;1.30;1.20;;;11.00;99.90;;;;;;4096428;28;20582;-68
2024/02/22 06:50:17;;;;;;;2.28;1.60;;;10.90;99.90;;;;;;4093371;28;20035;-71
2024/02/22 06:52:18;;;;;;;3.53;1.50;;;11.00;99.90;;;;;;4088914;28;20070;-69
2024/02/22 06:54:19;;;;;;;3.33;1.10;;;11.00;99.90;;;;;;4092753;28;20043;-69
2024/02/22 06:56:19;;;;;;;2.42;1.77;;;10.90;99.90;;;;;;4083684;28;20420;-70
2024/02/22 06:58:20;;;;;;;1.52;1.00;;;10.90;99.90;;;;;;4093780;28;20031;-69
2024/02/22 07:00:20;;;;;;;1.10;1.00;;;10.90;99.90;;;;;;4091343;28;20508;-68
2024/02/22 07:02:21;;;;;;;1.45;1.00;;;10.90;99.90;;;;;;4094999;28;20071;-69
2024/02/22 07:04:22;;;;;;;1.73;1.00;;;10.90;99.90;;;;;;4093327;28;20182;-70
2024/02/22 07:06:30;;;;;;;1.73;0.88;;;10.90;99.90;;;;;;4092372;28;20509;-70
2024/02/22 07:08:31;;;;;;;1.05;0.80;;;11.00;99.90;;;;;;4094494;28;20053;-69
2024/02/22 07:10:31;;;;;;;2.45;0.90;;;10.90;99.90;;;;;;4091713;28;20059;-69
2024/02/22 07:12:33;;;;;;;0.98;0.80;;;10.90;99.90;;;;;;4094028;28;20040;-70
2024/02/22 07:14:33;;;;;;;1.20;0.55;;;11.00;99.90;;;;;;4094972;28;20165;-70
2024/02/22 07:16:44;;;;;;;0.70;0.70;;;11.00;99.90;;;;;;4093428;28;20055;-70
2024/02/22 07:18:45;;;;;;;0.93;0.60;;;11.00;99.90;;;;;;4095760;28;20141;-70
2024/02/22 07:20:46;;;;;;;1.00;0.70;;;11.00;99.90;;;;;;4093199;28;20449;-70
2024/02/22 07:22:48;;;;;;;1.88;0.65;;;10.90;99.90;;;;;;4079592;28;20481;-74
2024/02/22 07:24:48;;;;;;;0.68;0.50;;;11.00;99.90;;;;;;4096771;28;20102;-69
2024/02/22 07:26:52;;;;;;;2.30;0.47;;;11.00;99.90;;;;;;4095530;28;20031;-68
2024/02/22 07:28:52;;;;;;;0.98;0.60;;;11.00;99.90;;;;;;4089109;28;20119;-68
2024/02/22 07:30:53;;;;;;;1.48;0.75;;;11.00;99.90;;;;;;4091785;28;20099;-70
2024/02/22 07:32:54;;;;;;;0.63;0.50;;;11.00;99.90;;;;;;4096649;28;20040;-69
2024/02/22 07:34:54;;;;;;;1.02;0.70;;;11.10;99.90;;;;;;4095311;28;20104;-69
2024/02/22 07:37:01;;;;;;;0.73;0.47;;;11.00;99.90;;;;;;4093543;28;20034;-70
2024/02/22 07:39:01;;;;;;;0.52;0.40;;;11.00;99.90;;;;;;4093508;28;20130;-72
2024/02/22 07:41:05;;;;;;;0.80;0.60;;;11.10;99.90;;;;;;4093065;28;20059;-69
2024/02/22 07:43:09;;;;;;;2.28;0.60;;;11.10;99.90;;;;;;4090428;28;20036;-69
2024/02/22 07:45:10;;;;;;;0.98;0.40;;;11.10;99.90;;;;;;4082298;28;20046;-71
2024/02/22 07:47:11;;;;;;;0.82;0.45;;;11.10;99.90;;;;;;4094551;28;20528;-69
2024/02/22 07:49:12;;;;;;;0.55;0.52;;;11.10;99.90;;;;;;4094516;28;20039;-69
2024/02/22 07:51:12;;;;;;;0.73;0.50;;;11.20;99.90;;;;;;4092300;28;20392;-70
2024/02/22 07:53:13;;;;;;;0.50;0.50;;;11.20;99.90;;;;;;4096774;28;20126;-70
2024/02/22 07:55:14;;;;;;;0.80;0.60;;;11.20;99.90;;;;;;4090790;28;20078;-70
2024/02/22 07:57:23;;;;;;;0.38;0.38;;;11.20;99.90;;;;;;4093842;28;20032;-70
2024/02/22 07:59:24;;;;;;;0.90;0.50;;;11.20;99.90;;;;;;4091663;28;20043;-71
2024/02/22 08:01:25;;;;;;;0.75;0.50;;;11.20;99.90;;;;;;4090472;28;20047;-69
2024/02/22 08:03:26;;;;;;;0.45;0.45;;;11.20;99.90;;;;;;4090705;28;20392;-69
2024/02/22 08:05:26;;;;;;;0.65;0.47;;;11.30;99.90;;;;;;4093515;28;20050;-71
2024/02/22 08:07:27;;;;;;;0.57;0.57;;;11.30;99.90;;;;;;4091554;28;20047;-69
2024/02/22 08:09:27;;;;;;;0.68;0.60;;;11.30;99.90;;;;;;4092025;28;20044;-72
2024/02/22 08:11:28;;;;;;;0.95;0.60;;;11.30;99.90;;;;;;4091728;28;20468;-70
2024/02/22 08:13:29;;;;;;;1.65;1.10;;;11.30;99.90;;;;;;4095047;28;20574;-72
2024/02/22 08:15:30;;;;;;;1.35;0.70;;;11.30;99.90;;;;;;4089996;28;20118;-72
2024/02/22 08:17:31;;;;;;;1.23;0.80;;;11.30;99.90;;;;;;4096848;28;20043;-72
2024/02/22 08:19:32;;;;;;;1.52;1.00;;;11.30;99.90;;;;;;4094041;28;20046;-72
2024/02/22 08:21:33;;;;;;;0.57;0.52;;;11.30;99.90;;;;;;4097595;28;20485;-72
2024/02/22 08:23:34;;;;;;;2.28;0.70;;;11.30;99.90;;;;;;4095561;28;20593;-72
2024/02/22 08:25:37;;;;;;;1.85;1.02;;;11.30;99.90;;;;;;4097035;28;20497;-72
2024/02/22 08:27:38;;;;;;;1.55;0.95;;;11.30;99.90;;;;;;4076877;29;20155;-72
2024/02/22 08:29:38;;;;;;;1.23;0.75;;;11.40;99.90;;;;;;4095973;28;20513;-72
2024/02/22 08:31:39;;;;;;;1.15;0.60;;;11.30;99.90;;;;;;4096422;28;20645;-72
2024/02/22 08:33:41;;;;;;;1.55;0.70;;;11.30;99.90;;;;;;4094260;28;20041;-70
2024/02/22 08:35:42;;;;;;;3.03;0.90;;;11.40;99.90;;;;;;4093395;28;20130;-70
2024/02/22 08:37:42;;;;;;;1.20;0.60;;;11.30;99.90;;;;;;4094462;28;20712;-71
2024/02/22 08:39:43;;;;;;;1.30;0.68;;;11.40;99.90;;;;;;4096084;28;20401;-71
2024/02/22 08:41:43;;;;;;;2.45;0.82;;;11.30;99.90;;;;;;4097627;28;20457;-70
2024/02/22 08:43:44;;;;;;;1.50;0.82;;;11.30;99.90;;;;;;4098260;28;20736;-71
2024/02/22 08:45:44;;;;;;;1.92;0.80;;;11.40;99.90;;;;;;4097239;28;20066;-70
2024/02/22 08:47:45;;;;;;;0.85;0.70;;;11.40;99.90;;;;;;4096140;28;20035;-71
2024/02/22 08:49:46;;;;;;;1.92;0.70;;;11.40;99.90;;;;;;4084639;28;20046;-70
2024/02/22 08:51:46;;;;;;;0.77;0.70;;;11.40;99.90;;;;;;4077814;28;20393;-70
2024/02/22 08:53:47;;;;;;;1.20;0.77;;;11.40;99.90;;;;;;4078895;29;20557;-71
2024/02/22 08:55:48;;;;;;;1.90;0.73;;;11.40;99.90;;;;;;4098735;28;20519;-70
2024/02/22 08:57:49;;;;;;;1.08;0.73;;;11.40;99.90;;;;;;4098140;28;20067;-70
2024/02/22 08:59:51;;;;;;;4.15;1.10;;;11.40;99.90;;;;;;4094279;28;20116;-70
2024/02/22 09:01:54;;;;;;;1.38;0.80;;;11.40;99.90;;;;;;4094778;28;20601;-70
2024/02/22 09:03:55;;;;;;;0.90;0.65;;;11.40;99.90;;;;;;4094765;28;20046;-70
2024/02/22 09:05:56;;;;;;;5.65;1.10;;;11.40;99.90;;;;;;4095724;28;20493;-72
2024/02/22 09:07:56;;;;;;;1.55;0.80;;;11.40;99.90;;;;;;4091740;28;20500;-71
2024/02/22 09:09:57;;;;;;;2.47;0.80;;;11.40;99.90;;;;;;4083681;28;22081;-70
2024/02/22 09:11:58;;;;;;;1.45;0.85;;;11.40;99.90;;;;;;4094243;28;20414;-70
2024/02/22 09:13:58;;;;;;;1.33;0.70;;;11.50;99.90;;;;;;4081481;28;20046;-70
2024/02/22 09:16:01;;;;;;;1.10;0.60;;;11.40;99.90;;;;;;4095693;28;20035;-70
2024/02/22 09:18:02;;;;;;;;;;;11.50;99.90;;;;;;4093979;28;20513;-69
2024/02/22 09:20:06;;;;;;;1.77;0.95;;;11.40;99.90;;;;;;4093957;28;19918;-71
2024/02/22 09:22:06;;;;;;;1.10;0.90;;;11.50;99.90;;;;;;4094513;28;20039;-72
2024/02/22 09:24:07;;;;;;;0.73;0.73;;;11.40;99.90;;;;;;4092680;28;20382;-71
2024/02/22 09:26:07;;;;;;;3.42;0.88;;;11.40;99.90;;;;;;4096172;28;20093;-71
2024/02/22 09:28:10;;;;;;;1.13;0.80;;;11.40;99.90;;;;;;4093594;28;20043;-70
2024/02/22 09:30:11;;;;;;;1.38;0.88;;;11.50;99.90;;;;;;4096505;28;20079;-70
2024/02/22 09:32:11;;;;;;;2.90;0.70;;;11.50;99.90;;;;;;4078369;28;20083;-70
2024/02/22 09:34:12;;;;;;;1.95;0.85;;;11.50;99.90;;;;;;4082235;28;20040;-72
2024/02/22 09:36:13;;;;;;;2.65;0.73;;;11.50;99.90;;;;;;4081734;28;20110;-72
2024/02/22 09:38:14;;;;;;;1.45;0.70;;;11.50;99.90;;;;;;4074578;28;20107;-72
2024/02/22 09:40:15;;;;;;;2.03;0.88;;;11.50;99.90;;;;;;4078440;28;20402;-72
2024/02/22 09:42:16;;;;;;;1.35;0.88;;;11.60;99.90;;;;;;4080718;28;20052;-72
2024/02/22 09:44:18;;;;;;;2.95;1.02;;;11.50;99.90;;;;;;4084240;28;20055;-68
2024/02/22 09:46:19;;;;;;;1.20;0.90;;;11.50;99.90;;;;;;4084284;28;21460;-72
2024/02/22 09:48:20;;;;;;;2.65;0.90;;;11.60;99.90;;;;;;4082537;28;20081;-69
2024/02/22 09:50:20;;;;;;;1.85;1.38;;;11.60;99.90;;;;;;4076336;28;20043;-69
2024/02/22 09:52:21;;;;;;;2.17;0.93;;;11.60;99.90;;;;;;4083338;28;20569;-73
2024/02/22 09:54:22;;;;;;;1.23;0.88;;;11.60;99.90;;;;;;4080510;28;20123;-72
2024/02/22 09:56:24;;;;;;;3.88;0.82;;;11.60;99.90;;;;;;4081687;28;20044;-71
2024/02/22 09:58:24;;;;;;;1.67;0.70;;;11.60;99.90;;;;;;4081119;29;20048;-72
2024/02/22 10:00:25;;;;;;;1.20;0.82;;;11.70;99.90;;;;;;4084170;28;20046;-72
2024/02/22 10:02:25;;;;;;;4.95;1.02;;;11.60;99.90;;;;;;4084411;28;20050;-72
2024/02/22 10:04:27;;;;;;;1.80;1.00;;;11.70;99.90;;;;;;4083932;28;20798;-72
2024/02/22 10:06:27;;;;;;;0.82;0.50;;;11.70;99.90;;;;;;4084579;28;20046;-71
2024/02/22 10:08:29;;;;;;;1.80;0.65;;;11.70;99.90;;;;;;4081287;28;20308;-72
2024/02/22 10:10:30;;;;;;;1.42;0.90;;;11.70;99.90;;;;;;4084701;28;20035;-73
2024/02/22 10:12:32;;;;;;;1.05;0.80;;;11.70;99.90;;;;;;4083693;28;20031;-72
2024/02/22 10:14:36;;;;;;;1.50;0.88;;;11.80;99.90;;;;;;4081291;28;20052;-72
2024/02/22 10:16:38;;;;;;;1.38;0.75;;;11.70;99.90;;;;;;4080785;28;20043;-72
2024/02/22 10:18:39;;;;;;;1.65;1.00;;;11.80;99.90;;;;;;4083904;28;20094;-72
2024/02/22 10:20:40;;;;;;;0.88;0.52;;;11.70;99.90;;;;;;4077977;28;20032;-72
2024/02/22 10:22:42;;;;;;;0.60;0.50;;;11.80;99.90;;;;;;4081903;28;20202;-73
2024/02/22 10:24:43;;;;;;;1.38;0.40;;;11.70;99.90;;;;;;4080122;28;20036;-71
2024/02/22 10:26:43;;;;;;;2.88;0.50;;;11.80;99.90;;;;;;4083931;29;20058;-70
2024/02/22 10:28:53;;;;;;;1.67;0.75;;;11.80;99.90;;;;;;4081349;28;20406;-70
2024/02/22 10:31:02;;;;;;;0.35;0.30;;;11.80;99.90;;;;;;4091664;28;20058;-71
2024/02/22 10:33:04;;;;;;;2.35;0.40;;;11.80;99.90;;;;;;4094385;28;20055;-69